createdAt,value
2019-05-14T00:01:55.289Z,12.97
2019-05-14T00:04:26.205Z,13.33
2019-05-14T00:06:56.677Z,12.37
2019-05-14T00:09:27.026Z,14.50
2019-05-14T00:11:57.391Z,13.27
2019-05-14T00:14:38.947Z,12.20
2019-05-14T00:17:01.779Z,12.50
2019-05-14T00:19:31.983Z,13.77
2019-05-14T00:22:02.335Z,12.77
2019-05-14T00:24:32.773Z,13.17
2019-05-14T00:27:03.165Z,13.80
2019-05-14T00:29:33.916Z,14.17
2019-05-14T00:32:04.330Z,14.60
2019-05-14T00:34:34.827Z,14.93
2019-05-14T00:37:05.388Z,15.77
2019-05-14T00:39:36.539Z,15.57
2019-05-14T00:42:06.937Z,15.60
2019-05-14T00:44:50.800Z,15.90
2019-05-14T00:47:11.234Z,15.00
2019-05-14T00:49:42.521Z,15.87
2019-05-14T00:52:13.269Z,16.00
2019-05-14T00:54:43.775Z,15.80
2019-05-14T00:57:14.247Z,16.97
2019-05-14T00:59:44.694Z,14.63
2019-05-14T01:02:15.001Z,15.73
2019-05-14T01:04:45.413Z,15.53
2019-05-14T01:07:15.851Z,15.00
2019-05-14T01:09:46.215Z,15.10
2019-05-14T01:12:16.607Z,14.27
2019-05-14T01:14:46.973Z,14.90
2019-05-14T01:17:17.355Z,14.17
2019-05-14T01:19:47.700Z,14.73
2019-05-14T01:22:18.007Z,14.27
2019-05-14T01:24:48.502Z,16.43
2019-05-14T01:27:21.002Z,14.00
2019-05-14T01:29:51.517Z,13.80
2019-05-14T01:32:22.199Z,13.77
2019-05-14T01:34:52.613Z,13.83
2019-05-14T01:37:23.033Z,13.10
2019-05-14T01:39:53.428Z,13.73
2019-05-14T01:42:24.156Z,14.43
2019-05-14T01:44:54.465Z,15.00
2019-05-14T01:47:25.051Z,14.10
2019-05-14T01:49:55.423Z,14.40
2019-05-14T01:52:25.889Z,14.53
2019-05-14T01:54:56.129Z,13.00
2019-05-14T01:57:27.689Z,13.00
2019-05-14T01:59:58.169Z,13.50
2019-05-14T02:02:28.579Z,12.07
2019-05-14T02:04:58.897Z,13.50
2019-05-14T02:07:31.303Z,13.00
2019-05-14T02:10:01.347Z,13.27
2019-05-14T02:12:31.729Z,13.67
2019-05-14T02:15:02.084Z,11.60
2019-05-14T02:17:33.917Z,12.13
2019-05-14T02:20:04.685Z,12.83
2019-05-14T02:22:35.075Z,13.07
2019-05-14T02:25:05.882Z,14.67
2019-05-14T02:27:36.251Z,13.93
2019-05-14T02:30:07.788Z,12.27
2019-05-14T02:32:40.411Z,12.80
2019-05-14T02:35:10.784Z,12.57
2019-05-14T02:37:41.116Z,13.83
2019-05-14T02:40:13.018Z,12.17
2019-05-14T02:42:43.794Z,12.10
2019-05-14T02:45:14.284Z,13.40
2019-05-14T02:47:44.729Z,12.13
2019-05-14T02:50:15.416Z,13.97
2019-05-14T02:52:49.402Z,12.20
2019-05-14T02:55:19.362Z,10.93
2019-05-14T02:57:50.343Z,10.93
2019-05-14T03:00:20.778Z,11.63
2019-05-14T03:02:51.162Z,12.00
2019-05-14T03:05:21.547Z,11.97
2019-05-14T03:07:51.928Z,11.57
2019-05-14T03:10:22.443Z,10.57
2019-05-14T03:12:52.800Z,11.40
2019-05-14T03:15:23.173Z,11.10
2019-05-14T03:17:53.649Z,11.40
2019-05-14T03:20:23.947Z,10.97
2019-05-14T03:23:03.070Z,11.20
2019-05-14T03:25:29.710Z,11.17
2019-05-14T03:27:59.995Z,11.87
2019-05-14T03:30:32.181Z,10.30
2019-05-14T03:33:03.506Z,11.63
2019-05-14T03:35:42.487Z,11.80
2019-05-14T03:38:09.233Z,12.37
2019-05-14T03:40:39.994Z,11.93
2019-05-14T03:43:10.918Z,12.33
2019-05-14T03:45:41.303Z,12.73
2019-05-14T03:48:11.669Z,11.43
2019-05-14T03:50:42.024Z,13.93
2019-05-14T03:53:13.707Z,12.70
2019-05-14T03:55:44.470Z,11.27
2019-05-14T03:58:14.909Z,11.30
2019-05-14T04:01:00.018Z,11.70
2019-05-14T04:03:30.224Z,12.47
2019-05-14T04:06:01.954Z,13.33
2019-05-14T04:08:33.605Z,12.40
2019-05-14T04:11:04.028Z,20.20
2019-05-14T04:13:35.748Z,14.03
2019-05-14T04:16:09.192Z,14.93
2019-05-14T04:18:40.326Z,27.43
2019-05-14T04:21:14.104Z,17.27
2019-05-14T04:23:50.915Z,15.57
2019-05-14T04:26:22.413Z,15.70
2019-05-14T04:28:53.627Z,16.60
2019-05-14T04:31:23.912Z,16.77
2019-05-14T04:33:59.177Z,16.80
2019-05-14T04:36:30.028Z,18.90
2019-05-14T04:39:01.206Z,22.60
2019-05-14T04:41:32.793Z,28.00
2019-05-14T04:44:03.245Z,17.73
2019-05-14T04:46:33.845Z,23.07
2019-05-14T04:49:04.521Z,21.03
2019-05-14T04:51:34.944Z,20.17
2019-05-14T04:54:09.457Z,19.43
2019-05-14T04:56:40.220Z,20.80
2019-05-14T04:59:11.348Z,19.60
2019-05-14T05:01:41.803Z,20.67
2019-05-14T05:04:12.367Z,20.23
2019-05-14T05:06:42.762Z,18.90
2019-05-14T05:09:13.232Z,18.30
2019-05-14T05:11:44.276Z,18.87
2019-05-14T05:14:14.669Z,21.43
2019-05-14T05:16:45.083Z,19.60
2019-05-14T05:19:15.487Z,18.47
2019-05-14T05:21:47.987Z,19.97
2019-05-14T05:24:18.470Z,19.60
2019-05-14T05:26:49.369Z,22.57
2019-05-14T05:29:19.743Z,19.70
2019-05-14T05:31:50.321Z,19.23
2019-05-14T05:34:20.700Z,18.87
2019-05-14T05:36:51.131Z,18.70
2019-05-14T05:39:21.564Z,20.03
2019-05-14T05:41:51.933Z,18.07
2019-05-14T05:44:22.338Z,17.57
2019-05-14T05:46:52.654Z,18.40
2019-05-14T05:49:23.064Z,18.87
2019-05-14T05:51:53.442Z,16.97
2019-05-14T05:54:25.391Z,17.30
2019-05-14T05:56:58.000Z,16.73
2019-05-14T05:59:29.281Z,15.00
2019-05-14T06:02:01.374Z,15.67
2019-05-14T06:04:31.724Z,16.83
2019-05-14T06:07:02.832Z,15.67
2019-05-14T06:09:33.364Z,14.47
2019-05-14T06:12:03.740Z,13.97
2019-05-14T06:14:34.113Z,14.67
2019-05-14T06:17:04.724Z,14.67
2019-05-14T06:19:35.098Z,13.57
2019-05-14T06:22:05.425Z,12.70
2019-05-14T06:24:35.977Z,13.60
2019-05-14T06:27:06.293Z,12.87
2019-05-14T06:29:38.295Z,13.33
2019-05-14T06:32:09.271Z,13.83
2019-05-14T06:34:40.986Z,12.77
2019-05-14T06:37:11.344Z,12.53
2019-05-14T06:39:41.733Z,11.37
2019-05-14T06:42:12.298Z,12.77
2019-05-14T06:44:42.658Z,11.27
2019-05-14T06:47:13.037Z,11.70
2019-05-14T06:49:43.320Z,11.93
2019-05-14T06:52:13.728Z,10.57
2019-05-14T06:54:44.162Z,10.07
2019-05-14T06:57:14.788Z,11.40
2019-05-14T06:59:45.326Z,11.03
2019-05-14T07:02:15.744Z,10.20
2019-05-14T07:04:48.384Z,11.10
2019-05-14T07:07:20.606Z,10.60
2019-05-14T07:09:51.293Z,10.63
2019-05-14T07:12:21.752Z,11.63
2019-05-14T07:14:52.142Z,10.97
2019-05-14T07:17:23.601Z,10.93
2019-05-14T07:19:54.030Z,10.53
2019-05-14T07:22:24.582Z,10.33
2019-05-14T07:24:55.586Z,10.63
2019-05-14T07:27:28.152Z,11.03
2019-05-14T07:29:59.217Z,11.27
2019-05-14T07:32:29.629Z,9.67
2019-05-14T07:35:00.031Z,11.43
2019-05-14T07:37:30.393Z,12.10
2019-05-14T07:40:00.800Z,12.10
2019-05-14T07:42:31.172Z,13.00
2019-05-14T07:45:01.743Z,13.80
2019-05-14T07:47:33.269Z,13.57
2019-05-14T07:50:03.838Z,12.67
2019-05-14T07:52:34.614Z,11.90
2019-05-14T07:55:06.091Z,14.83
2019-05-14T07:57:39.052Z,14.77
2019-05-14T08:00:09.380Z,13.53
2019-05-14T08:02:39.896Z,14.90
2019-05-14T08:05:10.932Z,13.27
2019-05-14T08:07:41.279Z,13.10
2019-05-14T08:10:12.046Z,11.97
2019-05-14T08:12:42.445Z,10.47
2019-05-14T08:15:18.821Z,9.27
2019-05-14T08:17:48.197Z,8.63
2019-05-14T08:20:19.799Z,8.77
2019-05-14T08:22:50.207Z,8.77
2019-05-14T08:25:20.838Z,8.43
2019-05-14T08:27:51.165Z,7.13
2019-05-14T08:30:22.027Z,6.90
2019-05-14T08:32:52.328Z,6.23
2019-05-14T08:35:22.736Z,5.70
2019-05-14T08:38:04.702Z,5.37
2019-05-14T08:40:25.112Z,6.03
2019-05-14T08:42:55.496Z,7.23
2019-05-14T08:45:25.832Z,6.63
2019-05-14T08:47:58.513Z,6.77
2019-05-14T08:50:28.248Z,6.33
2019-05-14T08:52:58.612Z,5.60
2019-05-14T08:55:29.660Z,4.20
2019-05-14T08:58:00.223Z,4.30
2019-05-14T09:00:30.898Z,2.87
2019-05-14T09:03:03.229Z,3.23
2019-05-14T09:05:33.576Z,2.70
2019-05-14T09:08:04.280Z,2.90
2019-05-14T09:10:34.684Z,3.47
2019-05-14T09:13:08.598Z,2.90
2019-05-14T09:15:38.817Z,3.40
2019-05-14T09:18:11.689Z,3.77
2019-05-14T09:20:41.181Z,3.50
2019-05-14T09:23:11.622Z,3.00
2019-05-14T09:25:47.752Z,3.30
2019-05-14T09:28:14.170Z,2.70
2019-05-14T09:30:44.524Z,3.10
2019-05-14T09:33:14.885Z,2.70
2019-05-14T09:35:45.257Z,2.97
2019-05-14T09:38:18.764Z,3.53
2019-05-14T09:40:49.049Z,3.33
2019-05-14T09:43:20.800Z,3.80
2019-05-14T09:45:51.246Z,4.70
2019-05-14T09:48:21.659Z,4.80
2019-05-14T09:50:52.038Z,4.33
2019-05-14T09:53:22.380Z,4.17
2019-05-14T09:55:52.756Z,4.73
2019-05-14T09:58:23.096Z,5.20
2019-05-14T10:00:53.825Z,4.80
2019-05-14T10:03:24.252Z,4.10
2019-05-14T10:05:59.010Z,5.33
2019-05-14T10:08:28.579Z,4.17
2019-05-14T10:11:00.296Z,3.20
2019-05-14T10:13:31.164Z,3.73
2019-05-14T10:16:01.505Z,3.07
2019-05-14T10:18:31.978Z,4.10
2019-05-14T10:21:02.397Z,3.20
2019-05-14T10:23:32.868Z,3.80
2019-05-14T10:26:09.058Z,4.00
2019-05-14T10:28:43.077Z,3.83
2019-05-14T10:31:13.335Z,3.50
2019-05-14T10:33:43.144Z,4.27
2019-05-14T10:36:13.597Z,4.50
2019-05-14T10:38:44.127Z,6.13
2019-05-14T10:41:14.477Z,6.10
2019-05-14T10:43:44.831Z,5.23
2019-05-14T10:46:15.182Z,5.47
2019-05-14T10:48:45.519Z,4.87
2019-05-14T10:51:18.106Z,5.10
2019-05-14T10:53:49.097Z,5.47
2019-05-14T10:56:19.852Z,4.60
2019-05-14T10:58:50.202Z,5.47
2019-05-14T11:01:22.579Z,4.03
2019-05-14T11:03:53.448Z,4.93
2019-05-14T11:06:23.800Z,5.03
2019-05-14T11:08:54.304Z,3.60
2019-05-14T11:11:24.864Z,4.50
2019-05-14T11:13:55.192Z,3.87
2019-05-14T11:16:25.543Z,3.43
2019-05-14T11:18:57.485Z,3.73
2019-05-14T11:21:30.112Z,4.60
2019-05-14T11:24:00.195Z,3.47
2019-05-14T11:26:30.657Z,4.83
2019-05-14T11:29:01.014Z,3.67
2019-05-14T11:31:34.238Z,3.80
2019-05-14T11:34:03.336Z,4.40
2019-05-14T11:36:33.667Z,3.80
2019-05-14T11:39:05.455Z,4.00
2019-05-14T11:41:35.776Z,5.60
2019-05-14T11:44:08.915Z,4.20
2019-05-14T11:46:46.928Z,3.63
2019-05-14T11:49:10.333Z,5.30
2019-05-14T11:51:59.351Z,5.50
2019-05-14T11:54:12.655Z,4.13
2019-05-14T11:56:43.052Z,5.57
2019-05-14T11:59:13.377Z,4.07
2019-05-14T12:01:43.900Z,4.73
2019-05-14T12:04:14.274Z,4.43
2019-05-14T12:06:44.616Z,4.53
2019-05-14T12:09:15.021Z,4.77
2019-05-14T12:11:47.115Z,4.47
2019-05-14T12:14:19.098Z,5.10
2019-05-14T12:16:49.597Z,4.97
2019-05-14T12:19:20.357Z,5.83
2019-05-14T12:22:06.225Z,5.13
2019-05-14T12:24:22.959Z,4.17
2019-05-14T12:26:53.303Z,4.43
2019-05-14T12:29:23.708Z,4.17
2019-05-14T12:31:54.073Z,3.63
2019-05-14T12:34:24.443Z,4.43
2019-05-14T12:36:54.784Z,3.43
2019-05-14T12:39:25.138Z,3.53
2019-05-14T12:41:55.505Z,3.73
2019-05-14T12:44:28.552Z,4.77
2019-05-14T12:46:58.708Z,3.57
2019-05-14T12:49:30.502Z,4.73
2019-05-14T12:52:18.101Z,3.20
2019-05-14T12:54:33.248Z,4.23
2019-05-14T12:57:03.680Z,3.70
2019-05-14T12:59:37.906Z,4.47
2019-05-14T13:02:09.643Z,5.03
2019-05-14T13:04:40.199Z,4.77
2019-05-14T13:07:10.953Z,13.23
2019-05-14T13:09:41.409Z,7.57
2019-05-14T13:12:11.835Z,6.30
2019-05-14T13:14:42.306Z,5.80
2019-05-14T13:17:12.685Z,6.23
2019-05-14T13:19:43.346Z,6.83
2019-05-14T13:22:17.928Z,7.20
2019-05-14T13:24:45.857Z,9.57
2019-05-14T13:27:18.948Z,7.43
2019-05-14T13:29:48.926Z,7.17
2019-05-14T13:32:19.758Z,5.40
2019-05-14T13:34:50.363Z,7.83
2019-05-14T13:37:20.996Z,6.53
2019-05-14T13:39:53.135Z,7.27
2019-05-14T13:42:25.369Z,6.17
2019-05-14T13:44:58.290Z,7.23
2019-05-14T13:47:28.794Z,7.93
2019-05-14T13:49:59.396Z,6.87
2019-05-14T13:52:29.760Z,6.43
2019-05-14T13:55:00.161Z,6.87
2019-05-14T13:57:30.568Z,6.60
2019-05-14T14:00:01.026Z,7.27
2019-05-14T14:02:31.928Z,6.57
2019-05-14T14:05:03.113Z,5.90
2019-05-14T14:07:33.501Z,8.33
2019-05-14T14:10:04.258Z,7.47
2019-05-14T14:12:34.615Z,7.40
2019-05-14T14:15:06.011Z,7.23
2019-05-14T14:17:39.048Z,7.53
2019-05-14T14:20:09.039Z,6.77
2019-05-14T14:22:40.214Z,5.60
2019-05-14T14:25:12.267Z,6.97
2019-05-14T14:27:42.616Z,5.30
2019-05-14T14:30:13.157Z,5.07
2019-05-14T14:32:43.531Z,4.73
2019-05-14T14:35:14.934Z,4.30
2019-05-14T14:37:45.271Z,5.43
2019-05-14T14:40:21.318Z,5.47
2019-05-14T14:42:49.188Z,5.13
2019-05-14T14:45:21.745Z,4.87
2019-05-14T14:47:52.494Z,4.77
2019-05-14T14:50:22.912Z,10.57
2019-05-14T14:52:53.308Z,6.20
2019-05-14T14:55:23.738Z,6.27
2019-05-14T14:57:55.666Z,5.27
2019-05-14T15:00:29.130Z,5.23
2019-05-14T15:02:59.729Z,5.70
2019-05-14T15:05:30.615Z,5.67
2019-05-14T15:08:01.125Z,6.20
2019-05-14T15:10:31.595Z,6.77
2019-05-14T15:13:02.078Z,6.63
2019-05-14T15:15:32.677Z,6.20
2019-05-14T15:18:03.461Z,10.53
2019-05-14T15:20:33.835Z,6.50
2019-05-14T15:23:04.253Z,6.27
2019-05-14T15:25:34.742Z,6.70
2019-05-14T15:28:05.431Z,6.83
2019-05-14T15:30:35.818Z,7.83
2019-05-14T15:33:08.985Z,6.13
2019-05-14T15:35:38.546Z,9.00
2019-05-14T15:38:11.462Z,6.47
2019-05-14T15:40:41.125Z,6.90
2019-05-14T15:43:11.821Z,7.03
2019-05-14T15:45:42.207Z,8.20
2019-05-14T15:48:12.923Z,13.47
2019-05-14T15:50:43.323Z,9.23
2019-05-14T15:53:13.877Z,7.93
2019-05-14T15:55:45.165Z,9.83
2019-05-14T15:58:15.809Z,13.47
2019-05-14T16:00:46.464Z,8.37
2019-05-14T16:03:18.809Z,8.57
2019-05-14T16:05:49.135Z,7.63
2019-05-14T16:08:22.889Z,7.67
2019-05-14T16:10:52.322Z,7.37
2019-05-14T16:13:23.187Z,7.40
2019-05-14T16:15:53.589Z,9.57
2019-05-14T16:18:24.260Z,8.07
2019-05-14T16:20:54.732Z,7.87
2019-05-14T16:23:25.152Z,7.53
2019-05-14T16:25:55.535Z,8.00
2019-05-14T16:28:28.528Z,9.23
2019-05-14T16:30:59.196Z,9.27
2019-05-14T16:33:29.807Z,8.87
2019-05-14T16:36:00.247Z,10.43
2019-05-14T16:38:30.637Z,10.67
2019-05-14T16:41:01.570Z,10.63
2019-05-14T16:43:32.559Z,11.83
2019-05-14T16:46:03.316Z,10.97
2019-05-14T16:48:33.885Z,11.73
2019-05-14T16:51:04.249Z,12.53
2019-05-14T16:53:35.009Z,11.37
2019-05-14T16:56:07.901Z,11.27
2019-05-14T16:58:38.689Z,11.00
2019-05-14T17:01:09.872Z,11.97
2019-05-14T17:03:42.031Z,11.57
2019-05-14T17:06:12.500Z,11.60
2019-05-14T17:08:42.984Z,12.10
2019-05-14T17:11:13.327Z,9.93
2019-05-14T17:13:43.962Z,11.80
2019-05-14T17:16:14.361Z,11.73
2019-05-14T17:18:44.730Z,11.50
2019-05-14T17:21:18.234Z,13.90
2019-05-14T17:23:49.076Z,12.13
2019-05-14T17:26:21.885Z,11.20
2019-05-14T17:28:52.498Z,13.23
2019-05-14T17:31:22.885Z,12.23
2019-05-14T17:33:53.470Z,13.23
2019-05-14T17:36:25.155Z,11.70
2019-05-14T17:38:55.949Z,11.67
2019-05-14T17:41:26.389Z,12.43
2019-05-14T17:43:58.610Z,13.17
2019-05-14T17:46:29.219Z,14.37
2019-05-14T17:48:59.735Z,12.33
2019-05-14T17:51:30.245Z,10.87
2019-05-14T17:54:00.796Z,13.37
2019-05-14T17:56:31.660Z,11.53
2019-05-14T17:59:02.347Z,12.30
2019-05-14T18:01:32.980Z,11.77
2019-05-14T18:04:03.522Z,14.73
2019-05-14T18:06:34.073Z,17.37
2019-05-14T18:09:05.525Z,13.57
2019-05-14T18:11:35.955Z,18.43
2019-05-14T18:14:11.613Z,13.40
2019-05-14T18:16:38.934Z,14.33
2019-05-14T18:19:09.331Z,14.73
2019-05-14T18:21:39.955Z,13.37
2019-05-14T18:24:10.209Z,13.70
2019-05-14T18:26:40.949Z,14.50
2019-05-14T18:29:11.652Z,14.53
2019-05-14T18:31:44.855Z,14.30
2019-05-14T18:34:14.222Z,16.07
2019-05-14T18:36:44.557Z,15.43
2019-05-14T18:39:20.762Z,15.13
2019-05-14T18:41:50.042Z,14.87
2019-05-14T18:44:20.832Z,14.33
2019-05-14T18:46:52.109Z,13.90
2019-05-14T18:49:22.488Z,14.30
2019-05-14T18:51:52.847Z,15.03
2019-05-14T18:54:23.235Z,14.07
2019-05-14T18:56:53.620Z,13.90
2019-05-14T18:59:24.019Z,12.43
2019-05-14T19:01:54.399Z,14.67
2019-05-14T19:04:24.833Z,14.20
2019-05-14T19:06:55.307Z,15.97
2019-05-14T19:09:25.693Z,15.50
2019-05-14T19:11:58.649Z,13.73
2019-05-14T19:14:29.219Z,15.03
2019-05-14T19:16:59.853Z,14.17
2019-05-14T19:19:30.253Z,13.67
2019-05-14T19:22:00.639Z,14.73
2019-05-14T19:24:30.999Z,13.97
2019-05-14T19:27:01.675Z,14.07
2019-05-14T19:29:32.021Z,15.57
2019-05-14T19:32:02.453Z,14.97
2019-05-14T19:34:33.158Z,15.17
2019-05-14T19:37:03.526Z,13.73
2019-05-14T19:39:33.855Z,15.03
2019-05-14T19:42:04.155Z,16.23
2019-05-14T19:44:35.691Z,39.23
2019-05-14T19:47:06.163Z,15.90
2019-05-14T19:49:38.312Z,16.30
2019-05-14T19:52:08.552Z,16.53
2019-05-14T19:54:38.967Z,16.60
2019-05-14T19:57:10.017Z,20.77
2019-05-14T19:59:40.580Z,15.57
2019-05-14T20:02:12.253Z,16.90
2019-05-14T20:04:42.690Z,16.67
2019-05-14T20:07:13.267Z,16.10
2019-05-14T20:09:43.603Z,16.33
2019-05-14T20:12:15.318Z,17.80
2019-05-14T20:14:45.767Z,16.83
2019-05-14T20:17:16.237Z,20.53
2019-05-14T20:19:49.228Z,18.40
2019-05-14T20:22:19.133Z,18.20
2019-05-14T20:24:49.761Z,16.80
2019-05-14T20:27:20.213Z,15.33
2019-05-14T20:29:50.617Z,17.70
2019-05-14T20:32:20.995Z,17.13
2019-05-14T20:34:51.637Z,17.57
2019-05-14T20:37:24.290Z,132.80
2019-05-14T20:39:54.699Z,18.73
2019-05-14T20:42:25.171Z,18.43
2019-05-14T20:44:55.746Z,17.00
2019-05-14T20:47:28.066Z,16.43
2019-05-14T20:49:58.197Z,17.67
2019-05-14T20:52:28.560Z,17.13
2019-05-14T20:55:00.179Z,19.23
2019-05-14T20:57:33.458Z,17.03
2019-05-14T21:00:02.886Z,17.43
2019-05-14T21:02:33.378Z,18.83
2019-05-14T21:05:06.061Z,20.47
2019-05-14T21:07:38.548Z,20.30
2019-05-14T21:10:09.654Z,17.80
2019-05-14T21:12:40.087Z,19.17
2019-05-14T21:15:12.023Z,17.00
2019-05-14T21:17:42.912Z,20.57
2019-05-14T21:20:14.220Z,23.30
2019-05-14T21:22:44.777Z,19.60
2019-05-14T21:25:18.270Z,20.63
2019-05-14T21:27:52.228Z,20.70
2019-05-14T21:30:22.236Z,18.53
2019-05-14T21:32:52.935Z,19.83
2019-05-14T21:35:23.367Z,21.50
2019-05-14T21:37:53.777Z,22.30
2019-05-14T21:40:24.251Z,28.13
2019-05-14T21:42:54.648Z,21.60
2019-05-14T21:45:25.048Z,20.87
2019-05-14T21:47:55.631Z,22.13
2019-05-14T21:50:26.042Z,20.33
2019-05-14T21:52:59.428Z,21.80
2019-05-14T21:55:29.010Z,23.57
2019-05-14T21:57:59.762Z,23.47
2019-05-14T22:00:42.006Z,23.83
2019-05-14T22:03:11.532Z,23.10
2019-05-14T22:05:42.086Z,24.60
2019-05-14T22:08:12.788Z,26.20
2019-05-14T22:10:43.334Z,23.77
2019-05-14T22:13:13.760Z,26.47
2019-05-14T22:15:44.229Z,24.60
2019-05-14T22:18:18.525Z,28.63
2019-05-14T22:20:48.354Z,24.40
2019-05-14T22:23:21.164Z,23.00
2019-05-14T22:25:51.104Z,23.33
2019-05-14T22:28:21.715Z,23.83
2019-05-14T22:30:52.150Z,26.80
2019-05-14T22:33:22.532Z,26.70
2019-05-14T22:35:53.380Z,23.50
2019-05-14T22:38:24.514Z,27.17
2019-05-14T22:40:54.928Z,25.97
2019-05-14T22:43:28.680Z,26.40
2019-05-14T22:45:59.200Z,29.60
2019-05-14T22:48:31.021Z,27.20
2019-05-14T22:51:01.428Z,28.97
2019-05-14T22:53:31.748Z,29.17
2019-05-14T22:56:02.136Z,24.77
2019-05-14T22:58:32.744Z,32.67
2019-05-14T23:01:14.409Z,28.73
2019-05-14T23:03:35.350Z,29.13
2019-05-14T23:06:05.718Z,27.37
2019-05-14T23:08:39.142Z,27.20
2019-05-14T23:11:09.590Z,28.53
2019-05-14T23:13:40.106Z,23.90
2019-05-14T23:16:10.570Z,28.77
2019-05-14T23:18:40.985Z,28.60
2019-05-14T23:21:11.409Z,28.33
2019-05-14T23:23:44.883Z,29.00
2019-05-14T23:26:15.338Z,29.70
2019-05-14T23:28:47.081Z,28.23
2019-05-14T23:31:17.848Z,25.73
2019-05-14T23:33:50.340Z,25.30
2019-05-14T23:36:20.732Z,24.57
2019-05-14T23:38:51.659Z,27.63
2019-05-14T23:41:21.978Z,25.20
2019-05-14T23:43:52.447Z,26.03
2019-05-14T23:46:22.868Z,26.23
2019-05-14T23:48:53.228Z,27.07
2019-05-14T23:51:23.795Z,26.67
2019-05-14T23:53:54.217Z,27.70
2019-05-14T23:56:28.674Z,25.13
2019-05-14T23:59:01.941Z,28.17
